createdAt,value
2019-04-05T00:01:35.962Z,100403.66
2019-04-05T00:04:05.081Z,100408.78
2019-04-05T00:06:34.106Z,100414.88
2019-04-05T00:09:04.460Z,100408.97
2019-04-05T00:11:33.640Z,100408.97
2019-04-05T00:14:02.880Z,100410.49
2019-04-05T00:16:31.967Z,100420.27
2019-04-05T00:19:01.094Z,100417.48
2019-04-05T00:21:30.178Z,100424.63
2019-04-05T00:23:59.310Z,100427.13
2019-04-05T00:26:28.400Z,100427.13
2019-04-05T00:28:57.533Z,100435.17
2019-04-05T00:31:26.545Z,100433.14
2019-04-05T00:33:55.567Z,100433.14
2019-04-05T00:36:24.579Z,100438.03
2019-04-05T00:38:53.709Z,100434.51
2019-04-05T00:41:22.831Z,100432.21
2019-04-05T00:43:51.921Z,100440.56
2019-04-05T00:46:21.021Z,100444.12
2019-04-05T00:48:50.166Z,100441.36
2019-04-05T00:51:19.333Z,100444.72
2019-04-05T00:53:48.521Z,100440.83
2019-04-05T00:56:17.642Z,100439.23
2019-04-05T00:58:46.639Z,100439.23
2019-04-05T01:01:15.633Z,100441.42
2019-04-05T01:03:44.693Z,100446.94
2019-04-05T01:06:14.011Z,100446.94
2019-04-05T01:08:43.063Z,100445.37
2019-04-05T01:11:12.353Z,100445.50
2019-04-05T01:13:43.978Z,100445.50
2019-04-05T01:16:13.096Z,100444.33
2019-04-05T01:18:42.287Z,100450.21
2019-04-05T01:21:14.343Z,100450.21
2019-04-05T01:23:43.692Z,100453.60
2019-04-05T01:26:15.448Z,100458.56
2019-04-05T01:28:44.658Z,100463.70
2019-04-05T01:31:13.768Z,100466.79
2019-04-05T01:33:42.853Z,100466.79
2019-04-05T01:36:11.955Z,100462.11
2019-04-05T01:38:41.156Z,100468.30
2019-04-05T01:41:10.888Z,100467.97
2019-04-05T01:43:40.047Z,100474.01
2019-04-05T01:46:09.537Z,100465.75
2019-04-05T01:48:38.655Z,100470.50
2019-04-05T01:51:07.972Z,100462.61
2019-04-05T01:53:37.176Z,100463.41
2019-04-05T01:56:06.359Z,100463.43
2019-04-05T01:58:35.475Z,100463.43
2019-04-05T02:01:04.675Z,100466.53
2019-04-05T02:03:33.879Z,100474.37
2019-04-05T02:06:03.045Z,100468.77
2019-04-05T02:08:32.185Z,100473.45
2019-04-05T02:11:01.374Z,100471.07
2019-04-05T02:13:30.545Z,100473.54
2019-04-05T02:16:06.315Z,100471.79
2019-04-05T02:18:30.634Z,100464.94
2019-04-05T02:21:00.293Z,100469.55
2019-04-05T02:23:29.401Z,100466.97
2019-04-05T02:25:58.489Z,100463.39
2019-04-05T02:28:27.676Z,100462.64
2019-04-05T02:30:56.879Z,100466.05
2019-04-05T02:33:26.079Z,100466.05
2019-04-05T02:35:55.402Z,100470.03
2019-04-05T02:38:24.576Z,100461.80
2019-04-05T02:40:58.030Z,100466.53
2019-04-05T02:43:28.012Z,100466.53
2019-04-05T02:45:57.722Z,100471.02
2019-04-05T02:48:29.220Z,100479.35
2019-04-05T02:51:01.322Z,100480.34
2019-04-05T02:53:31.456Z,100477.47
2019-04-05T02:56:03.268Z,100477.47
2019-04-05T02:58:33.838Z,100483.46
2019-04-05T03:01:03.600Z,100485.98
2019-04-05T03:03:32.675Z,100488.95
2019-04-05T03:06:02.357Z,100488.95
2019-04-05T03:08:31.499Z,100487.67
2019-04-05T03:11:11.681Z,100483.32
2019-04-05T03:13:48.427Z,100491.36
2019-04-05T03:16:38.482Z,100490.03
2019-04-05T03:19:05.052Z,100488.19
2019-04-05T03:21:37.245Z,100485.17
2019-04-05T03:24:07.987Z,100486.36
2019-04-05T03:26:40.223Z,100483.16
2019-04-05T03:29:11.171Z,100479.69
2019-04-05T03:31:40.817Z,100482.66
2019-04-05T03:34:10.000Z,100473.46
2019-04-05T03:36:39.956Z,100475.09
2019-04-05T03:39:10.475Z,100476.46
2019-04-05T03:41:39.717Z,100472.45
2019-04-05T03:44:10.605Z,100472.45
2019-04-05T03:46:55.375Z,100475.48
2019-04-05T03:49:11.847Z,100487.04
2019-04-05T03:51:41.505Z,100492.98
2019-04-05T03:54:10.693Z,100492.98
2019-04-05T03:56:39.835Z,100496.45
2019-04-05T03:59:09.105Z,100491.84
2019-04-05T04:01:38.276Z,100501.19
2019-04-05T04:04:07.554Z,100501.19
2019-04-05T04:06:36.736Z,100494.36
2019-04-05T04:09:07.041Z,100494.36
2019-04-05T04:11:37.111Z,100498.31
2019-04-05T04:14:06.934Z,100496.77
2019-04-05T04:16:36.287Z,100491.49
2019-04-05T04:19:05.688Z,100499.45
2019-04-05T04:21:42.038Z,100499.45
2019-04-05T04:24:11.382Z,100495.63
2019-04-05T04:26:41.726Z,100499.05
2019-04-05T04:29:11.187Z,100499.09
2019-04-05T04:31:40.762Z,100501.69
2019-04-05T04:34:10.066Z,100501.69
2019-04-05T04:36:39.204Z,100508.99
2019-04-05T04:39:08.391Z,100513.83
2019-04-05T04:41:37.537Z,100513.83
2019-04-05T04:44:06.842Z,100528.30
2019-04-05T04:46:36.017Z,100526.39
2019-04-05T04:49:05.232Z,100529.92
2019-04-05T04:51:35.049Z,100534.81
2019-04-05T04:54:04.549Z,100534.81
2019-04-05T04:56:33.956Z,100541.31
2019-04-05T04:59:03.110Z,100538.54
2019-04-05T05:01:32.365Z,100538.54
2019-04-05T05:04:01.981Z,100537.91
2019-04-05T05:06:31.200Z,100537.91
2019-04-05T05:09:00.900Z,100535.52
2019-04-05T05:11:30.356Z,100537.97
2019-04-05T05:13:59.513Z,100542.72
2019-04-05T05:16:28.752Z,100537.23
2019-04-05T05:18:57.919Z,100540.52
2019-04-05T05:21:27.024Z,100542.15
2019-04-05T05:23:56.182Z,100538.86
2019-04-05T05:26:25.822Z,100538.03
2019-04-05T05:28:54.902Z,100540.91
2019-04-05T05:31:25.264Z,100545.20
2019-04-05T05:33:54.547Z,100545.20
2019-04-05T05:36:23.724Z,100542.73
2019-04-05T05:38:52.981Z,100543.62
2019-04-05T05:41:22.145Z,100546.23
2019-04-05T05:43:51.324Z,100539.96
2019-04-05T05:46:20.487Z,100543.62
2019-04-05T05:48:49.698Z,100549.28
2019-04-05T05:51:18.903Z,100559.98
2019-04-05T05:53:48.030Z,100560.23
2019-04-05T05:56:17.060Z,100559.34
2019-04-05T05:58:46.074Z,100559.34
2019-04-05T06:01:15.073Z,100563.02
2019-04-05T06:03:44.097Z,100562.03
2019-04-05T06:06:13.157Z,100562.03
2019-04-05T06:08:42.175Z,100565.91
2019-04-05T06:11:11.267Z,100565.66
2019-04-05T06:13:40.259Z,100567.82
2019-04-05T06:16:09.384Z,100568.05
2019-04-05T06:18:38.358Z,100576.27
2019-04-05T06:21:07.427Z,100578.72
2019-04-05T06:23:36.566Z,100578.72
2019-04-05T06:26:05.717Z,100592.42
2019-04-05T06:28:34.807Z,100592.02
2019-04-05T06:31:03.882Z,100590.06
2019-04-05T06:33:35.730Z,100594.15
2019-04-05T06:36:03.823Z,100598.03
2019-04-05T06:38:33.216Z,100599.11
2019-04-05T06:41:02.194Z,100599.47
2019-04-05T06:43:31.263Z,100599.47
2019-04-05T06:46:00.465Z,100591.14
2019-04-05T06:48:29.898Z,100589.61
2019-04-05T06:50:59.045Z,100584.22
2019-04-05T06:53:28.064Z,100584.78
2019-04-05T06:55:59.559Z,100588.27
2019-04-05T06:58:29.454Z,100591.17
2019-04-05T07:00:58.754Z,100595.38
2019-04-05T07:03:27.897Z,100595.38
2019-04-05T07:05:57.007Z,100595.05
2019-04-05T07:08:26.028Z,100595.05
2019-04-05T07:10:55.052Z,100603.52
2019-04-05T07:13:27.214Z,100609.31
2019-04-05T07:15:55.055Z,100603.49
2019-04-05T07:18:34.047Z,100598.45
2019-04-05T07:20:57.755Z,100598.45
2019-04-05T07:23:25.697Z,100608.66
2019-04-05T07:25:54.709Z,100608.66
2019-04-05T07:28:25.125Z,100607.35
2019-04-05T07:30:54.314Z,100607.35
2019-04-05T07:33:23.344Z,100608.41
2019-04-05T07:35:52.455Z,100614.12
2019-04-05T07:38:21.457Z,100615.50
2019-04-05T07:40:50.495Z,100617.02
2019-04-05T07:43:19.571Z,100621.73
2019-04-05T07:45:48.570Z,100616.71
2019-04-05T07:48:17.606Z,100616.71
2019-04-05T07:50:49.540Z,100606.22
2019-04-05T07:53:18.569Z,100617.84
2019-04-05T07:55:47.803Z,100617.59
2019-04-05T07:58:16.922Z,100615.20
2019-04-05T08:01:05.776Z,100613.37
2019-04-05T08:03:34.893Z,100607.16
2019-04-05T08:06:04.022Z,100613.38
2019-04-05T08:11:08.804Z,100605.23
2019-04-05T08:13:41.023Z,100607.03
2019-04-05T08:16:10.149Z,100598.43
2019-04-05T08:18:39.255Z,100609.40
2019-04-05T08:21:08.380Z,100601.03
2019-04-05T08:23:37.635Z,100601.92
2019-04-05T08:26:06.737Z,100609.80
2019-04-05T08:28:35.709Z,100605.84
2019-04-05T08:31:04.812Z,100605.20
2019-04-05T08:33:36.300Z,100605.31
2019-04-05T08:36:04.748Z,100603.47
2019-04-05T08:38:33.821Z,100596.77
2019-04-05T08:41:03.006Z,100604.84
2019-04-05T08:43:32.101Z,100604.84
2019-04-05T08:46:01.176Z,100594.70
2019-04-05T08:48:30.256Z,100597.59
2019-04-05T08:50:59.410Z,100595.76
2019-04-05T08:53:28.443Z,100594.55
2019-04-05T08:55:57.458Z,100599.43
2019-04-05T08:58:33.291Z,100608.31
2019-04-05T09:00:57.290Z,100605.92
2019-04-05T09:03:26.387Z,100606.63
2019-04-05T09:05:55.450Z,100602.67
2019-04-05T09:08:24.548Z,100602.94
2019-04-05T09:10:54.699Z,100605.41
2019-04-05T09:13:23.888Z,100594.15
2019-04-05T09:15:52.957Z,100594.81
2019-04-05T09:18:21.957Z,100591.95
2019-04-05T09:20:50.969Z,100589.83
2019-04-05T09:23:19.986Z,100579.33
2019-04-05T09:25:49.014Z,100583.43
2019-04-05T09:28:18.082Z,100580.97
2019-04-05T09:30:47.090Z,100573.94
2019-04-05T09:33:16.114Z,100569.13
2019-04-05T09:35:45.107Z,100567.41
2019-04-05T09:38:14.183Z,100569.83
2019-04-05T09:40:43.434Z,100569.61
2019-04-05T09:43:12.566Z,100566.86
2019-04-05T09:45:41.613Z,100573.41
2019-04-05T09:48:10.743Z,100578.59
2019-04-05T09:50:39.757Z,100571.59
2019-04-05T09:53:08.938Z,100571.59
2019-04-05T09:55:37.937Z,100580.06
2019-04-05T09:58:09.904Z,100586.78
2019-04-05T10:00:37.775Z,100575.20
2019-04-05T10:03:06.899Z,100575.20
2019-04-05T10:05:36.039Z,100569.55
2019-04-05T10:10:37.892Z,100571.76
2019-04-05T10:13:09.628Z,100566.13
2019-04-05T10:15:38.178Z,100563.35
2019-04-05T10:18:07.298Z,100567.39
2019-04-05T10:20:38.899Z,100567.39
2019-04-05T10:23:07.083Z,100563.05
2019-04-05T10:25:36.574Z,100563.39
2019-04-05T10:28:05.933Z,100563.47
2019-04-05T10:30:35.048Z,100563.47
2019-04-05T10:33:04.050Z,100558.38
2019-04-05T10:35:33.207Z,100556.78
2019-04-05T10:38:02.221Z,100561.34
2019-04-05T10:40:31.528Z,100561.34
2019-04-05T10:43:00.550Z,100564.12
2019-04-05T10:45:29.617Z,100561.01
2019-04-05T10:47:58.799Z,100550.92
2019-04-05T10:50:27.961Z,100552.13
2019-04-05T10:52:57.111Z,100555.41
2019-04-05T10:55:26.082Z,100541.29
2019-04-05T10:57:55.159Z,100543.70
2019-04-05T11:00:24.977Z,100543.70
2019-04-05T11:02:54.095Z,100528.86
2019-04-05T11:05:23.163Z,100537.01
2019-04-05T11:07:52.163Z,100525.04
2019-04-05T11:10:21.320Z,100531.91
2019-04-05T11:12:50.526Z,100531.36
2019-04-05T11:15:20.549Z,100528.45
2019-04-05T11:17:49.594Z,100537.81
2019-04-05T11:20:22.399Z,100525.52
2019-04-05T11:22:50.954Z,100539.40
2019-04-05T11:25:21.132Z,100541.63
2019-04-05T11:27:50.452Z,100538.56
2019-04-05T11:30:37.918Z,100538.92
2019-04-05T11:33:07.373Z,100534.81
2019-04-05T11:35:37.000Z,100523.71
2019-04-05T11:38:06.170Z,100530.92
2019-04-05T11:40:35.696Z,100531.86
2019-04-05T11:43:05.740Z,100526.28
2019-04-05T11:45:38.623Z,100526.16
2019-04-05T11:48:11.351Z,100534.52
2019-04-05T11:50:40.526Z,100534.38
2019-04-05T11:53:13.632Z,100534.38
2019-04-05T11:55:42.746Z,100528.94
2019-04-05T11:58:12.023Z,100526.41
2019-04-05T12:00:49.915Z,100526.41
2019-04-05T12:03:19.124Z,100532.95
2019-04-05T12:05:49.817Z,100532.95
2019-04-05T12:08:18.934Z,100527.29
2019-04-05T12:10:47.994Z,100521.48
2019-04-05T12:13:17.041Z,100521.48
2019-04-05T12:15:46.114Z,100528.41
2019-04-05T12:18:19.117Z,100532.20
2019-04-05T12:20:52.148Z,100532.38
2019-04-05T12:23:16.778Z,100474.25
2019-04-05T12:25:45.769Z,100526.84
2019-04-05T12:28:14.751Z,100526.84
2019-04-05T12:30:46.620Z,100531.67
2019-04-05T12:33:19.253Z,100526.17
2019-04-05T12:35:46.347Z,100529.66
2019-04-05T12:38:31.596Z,100520.48
2019-04-05T12:41:02.970Z,100527.61
2019-04-05T12:43:32.435Z,100526.84
2019-04-05T12:46:03.956Z,100522.56
2019-04-05T12:48:33.001Z,100513.85
2019-04-05T12:51:05.140Z,100519.22
2019-04-05T12:53:32.793Z,100520.48
2019-04-05T12:56:01.829Z,100520.48
2019-04-05T12:58:32.750Z,100518.94
2019-04-05T13:01:01.524Z,100518.94
2019-04-05T13:03:30.588Z,100519.24
2019-04-05T13:05:59.649Z,100518.37
2019-04-05T13:08:28.664Z,100519.56
2019-04-05T13:10:57.729Z,100519.39
2019-04-05T13:13:27.629Z,100519.39
2019-04-05T13:15:59.156Z,100509.80
2019-04-05T13:18:30.623Z,100509.80
2019-04-05T13:21:00.349Z,100496.84
2019-04-05T13:23:29.189Z,100502.34
2019-04-05T13:25:58.307Z,100501.15
2019-04-05T13:28:27.374Z,100496.32
2019-04-05T13:30:56.498Z,100491.75
2019-04-05T13:33:25.539Z,100484.75
2019-04-05T13:35:54.513Z,100484.75
2019-04-05T13:38:23.492Z,100473.79
2019-04-05T13:40:52.677Z,100467.37
2019-04-05T13:43:21.691Z,100463.72
2019-04-05T13:45:55.289Z,100463.72
2019-04-05T13:48:24.382Z,100472.13
2019-04-05T13:50:53.451Z,100476.03
2019-04-05T13:53:22.450Z,100461.30
2019-04-05T13:55:51.554Z,100462.75
2019-04-05T13:58:20.694Z,100453.05
2019-04-05T14:00:49.933Z,100454.20
2019-04-05T14:03:20.884Z,100454.27
2019-04-05T14:05:50.174Z,100454.27
2019-04-05T14:08:20.523Z,100450.89
2019-04-05T14:10:49.612Z,100450.43
2019-04-05T14:13:18.800Z,100449.86
2019-04-05T14:15:48.190Z,100439.73
2019-04-05T14:18:17.456Z,100451.97
2019-04-05T14:20:49.668Z,100445.45
2019-04-05T14:23:17.358Z,100440.63
2019-04-05T14:25:46.418Z,100441.25
2019-04-05T14:28:15.519Z,100441.25
2019-04-05T14:30:44.505Z,100440.04
2019-04-05T14:33:13.570Z,100439.30
2019-04-05T14:35:42.752Z,100435.45
2019-04-05T14:38:11.982Z,100429.28
2019-04-05T14:40:40.977Z,100429.28
2019-04-05T14:43:10.046Z,100431.27
2019-04-05T14:45:39.230Z,100431.27
2019-04-05T14:48:08.246Z,100430.22
2019-04-05T14:50:37.241Z,100416.42
2019-04-05T14:53:06.676Z,100413.64
2019-04-05T14:55:35.755Z,100414.73
2019-04-05T14:58:06.040Z,100410.28
2019-04-05T15:00:35.271Z,100403.77
2019-04-05T15:03:04.371Z,100397.96
2019-04-05T15:05:33.619Z,100390.34
2019-04-05T15:08:02.632Z,100397.23
2019-04-05T15:10:31.759Z,100406.66
2019-04-05T15:13:01.559Z,100405.02
2019-04-05T15:15:30.678Z,100398.24
2019-04-05T15:17:59.646Z,100397.50
2019-04-05T15:20:28.813Z,100392.20
2019-04-05T15:22:57.902Z,100402.85
2019-04-05T15:25:26.922Z,100400.64
2019-04-05T15:27:56.492Z,100398.08
2019-04-05T15:30:26.444Z,100390.13
2019-04-05T15:32:57.958Z,100397.08
2019-04-05T15:35:28.294Z,100393.33
2019-04-05T15:37:57.200Z,100384.91
2019-04-05T15:40:26.253Z,100389.53
2019-04-05T15:42:55.347Z,100392.10
2019-04-05T15:45:24.440Z,100392.98
2019-04-05T15:47:53.578Z,100390.73
2019-04-05T15:50:22.850Z,100394.49
2019-04-05T15:52:52.394Z,100394.49
2019-04-05T15:55:25.215Z,100396.13
2019-04-05T15:57:57.335Z,100396.13
2019-04-05T16:00:41.631Z,100388.33
2019-04-05T16:03:11.289Z,100389.46
2019-04-05T16:05:40.566Z,100393.33
2019-04-05T16:08:09.745Z,100395.36
2019-04-05T16:10:38.772Z,100395.44
2019-04-05T16:13:09.598Z,100401.86
2019-04-05T16:15:38.692Z,100398.57
2019-04-05T16:18:07.706Z,100401.98
2019-04-05T16:20:36.728Z,100393.68
2019-04-05T16:23:05.830Z,100399.36
2019-04-05T16:25:35.678Z,100398.52
2019-04-05T16:28:05.113Z,100399.86
2019-04-05T16:30:34.208Z,100404.38
2019-04-05T16:33:03.362Z,100408.05
2019-04-05T16:35:32.907Z,100408.05
2019-04-05T16:38:02.007Z,100412.06
2019-04-05T16:40:31.496Z,100412.06
2019-04-05T16:43:02.836Z,100419.87
2019-04-05T16:45:31.535Z,100424.95
2019-04-05T16:48:00.600Z,100426.34
2019-04-05T16:50:29.618Z,100426.34
2019-04-05T16:52:58.726Z,100417.41
2019-04-05T16:55:27.715Z,100417.41
2019-04-05T16:58:30.833Z,100428.80
2019-04-05T17:01:00.162Z,100424.56
2019-04-05T17:03:29.309Z,100426.77
2019-04-05T17:05:58.392Z,100431.08
2019-04-05T17:08:27.469Z,100431.08
2019-04-05T17:10:56.494Z,100434.88
2019-04-05T17:13:25.517Z,100436.45
2019-04-05T17:15:54.603Z,100428.10
2019-04-05T17:18:23.659Z,100434.98
2019-04-05T17:20:52.661Z,100436.43
2019-04-05T17:23:21.774Z,100435.09
2019-04-05T17:25:50.918Z,100435.66
2019-04-05T17:28:19.925Z,100435.66
2019-04-05T17:30:48.956Z,100438.16
2019-04-05T17:33:18.041Z,100438.33
2019-04-05T17:35:47.031Z,100439.41
2019-04-05T17:38:16.055Z,100438.33
2019-04-05T17:40:45.494Z,100432.61
2019-04-05T17:43:14.516Z,100436.70
2019-04-05T17:45:43.518Z,100437.05
2019-04-05T17:48:12.671Z,100439.98
2019-04-05T17:50:41.672Z,100434.09
2019-04-05T17:53:13.759Z,100437.66
2019-04-05T17:55:42.841Z,100433.18
2019-04-05T17:58:12.330Z,100432.80
2019-04-05T18:00:41.793Z,100432.80
2019-04-05T18:03:10.964Z,100435.31
2019-04-05T18:05:40.046Z,100425.23
2019-04-05T18:08:09.184Z,100431.97
2019-04-05T18:10:55.037Z,100434.72
2019-04-05T18:13:24.200Z,100434.72
2019-04-05T18:15:53.411Z,100437.75
2019-04-05T18:18:22.528Z,100444.44
2019-04-05T18:20:51.624Z,100444.06
2019-04-05T18:23:25.376Z,100445.66
2019-04-05T18:25:51.644Z,100444.84
2019-04-05T18:30:55.717Z,100451.70
2019-04-05T18:33:24.748Z,100448.69
2019-04-05T18:36:00.009Z,100454.44
2019-04-05T18:38:30.628Z,100456.52
2019-04-05T18:40:59.754Z,100460.64
2019-04-05T18:43:29.276Z,100460.36
2019-04-05T18:45:58.297Z,100459.75
2019-04-05T18:48:27.438Z,100461.10
2019-04-05T18:51:07.266Z,100460.58
2019-04-05T18:53:37.966Z,100464.95
2019-04-05T18:56:07.225Z,100467.91
2019-04-05T18:58:39.276Z,100471.45
2019-04-05T19:01:08.358Z,100477.05
2019-04-05T19:03:37.380Z,100478.22
2019-04-05T19:06:06.647Z,100471.78
2019-04-05T19:08:39.801Z,100471.78
2019-04-05T19:11:06.569Z,100476.58
2019-04-05T19:13:35.654Z,100481.28
2019-04-05T19:16:04.754Z,100486.67
2019-04-05T19:18:33.868Z,100485.22
2019-04-05T19:21:02.987Z,100495.16
2019-04-05T19:23:32.011Z,100501.92
2019-04-05T19:26:01.166Z,100502.91
2019-04-05T19:28:30.170Z,100502.91
2019-04-05T19:48:35.550Z,100493.99
2019-04-05T19:53:40.842Z,100496.01
2019-04-05T19:56:11.638Z,100500.47
2019-04-05T19:58:40.636Z,100500.47
2019-04-05T20:01:09.733Z,100489.23
2019-04-05T20:03:38.739Z,100491.30
2019-04-05T20:06:08.035Z,100491.30
2019-04-05T20:08:37.076Z,100491.79
2019-04-05T20:11:06.364Z,100480.20
2019-04-05T20:13:35.471Z,100493.08
2019-04-05T20:16:05.095Z,100483.44
2019-04-05T20:18:34.235Z,100483.59
2019-04-05T20:21:03.783Z,100478.77
2019-04-05T20:23:35.117Z,100473.95
2019-04-05T20:26:04.866Z,100486.41
2019-04-05T20:28:34.019Z,100487.44
2019-04-05T20:31:03.196Z,100488.61
2019-04-05T20:33:36.762Z,100485.97
2019-04-05T20:36:06.660Z,100489.95
2019-04-05T20:38:36.831Z,100489.00
2019-04-05T20:41:06.482Z,100489.00
2019-04-05T20:43:37.013Z,100490.20
2019-04-05T20:46:06.267Z,100485.91
2019-04-05T20:51:22.908Z,100494.65
2019-04-05T20:53:52.347Z,100484.47
2019-04-05T20:56:21.533Z,100478.92
2019-04-05T21:01:32.524Z,100478.62
2019-04-05T21:04:02.950Z,100477.27
2019-04-05T21:06:32.227Z,100476.72
2019-04-05T21:09:01.695Z,100483.34
2019-04-05T21:11:31.304Z,100484.77
2019-04-05T21:14:01.294Z,100486.89
2019-04-05T21:16:35.190Z,100480.05
2019-04-05T21:19:09.452Z,100488.90
2019-04-05T21:21:39.251Z,100484.25
2019-04-05T21:24:09.339Z,100487.39
2019-04-05T21:26:40.131Z,100482.43
2019-04-05T21:29:09.327Z,100485.55
2019-04-05T21:31:49.098Z,100483.41
2019-04-05T21:34:18.682Z,100480.26
2019-04-05T21:36:49.008Z,100477.81
2019-04-05T21:39:22.704Z,100474.75
2019-04-05T21:41:54.021Z,100479.44
2019-04-05T21:44:28.035Z,100479.44
2019-04-05T21:47:02.418Z,100477.05
2019-04-05T21:49:32.963Z,100479.05
2019-04-05T21:52:03.687Z,100483.14
2019-04-05T21:57:04.310Z,100479.25
2019-04-05T21:59:33.778Z,100486.09
2019-04-05T22:02:04.132Z,100482.62
2019-04-05T22:04:33.299Z,100481.20
2019-04-05T22:07:02.622Z,100487.81
2019-04-05T22:09:31.736Z,100484.19
2019-04-05T22:12:00.895Z,100483.05
2019-04-05T22:14:30.387Z,100483.05
2019-04-05T22:16:59.612Z,100485.41
2019-04-05T22:19:29.944Z,100484.12
2019-04-05T22:21:59.159Z,100484.12
2019-04-05T22:24:28.436Z,100484.98
2019-04-05T22:26:57.578Z,100478.51
2019-04-05T22:29:29.580Z,100480.56
2019-04-05T22:32:01.442Z,100479.99
2019-04-05T22:34:54.251Z,100485.18
2019-04-05T22:37:25.933Z,100487.92
2019-04-05T22:39:56.217Z,100485.82
2019-04-05T22:45:40.689Z,100493.46
2019-04-05T22:48:33.064Z,100486.67
2019-04-05T22:51:12.475Z,100488.72
2019-04-05T22:53:43.758Z,100485.30
2019-04-05T22:56:18.145Z,100482.37
2019-04-05T22:58:48.431Z,100482.85
2019-04-05T23:01:24.825Z,100483.14
2019-04-05T23:04:06.161Z,100486.80
2019-04-05T23:07:22.939Z,100482.54
2019-04-05T23:09:56.471Z,100469.50
2019-04-05T23:12:32.042Z,100474.95
2019-04-05T23:15:02.193Z,100467.70
2019-04-05T23:17:34.103Z,100476.87
2019-04-05T23:20:08.934Z,100476.87
2019-04-05T23:22:41.099Z,100457.16
2019-04-05T23:25:21.409Z,100453.66
2019-04-05T23:30:38.919Z,100457.64
2019-04-05T23:33:09.854Z,100459.73
2019-04-05T23:35:41.160Z,100457.98
2019-04-05T23:38:10.928Z,100458.43
2019-04-05T23:40:49.176Z,100458.56
2019-04-05T23:43:51.324Z,100458.56
2019-04-05T23:46:22.377Z,100457.67
2019-04-05T23:48:52.444Z,100442.20
2019-04-05T23:51:21.696Z,100433.87
2019-04-05T23:53:53.897Z,100439.05
2019-04-05T23:59:24.514Z,100440.73
